Time;durP1;ratioP1;P1;durP2;ratioP2;P2;SDS_P1;SDS_P2;PMS_P1;PMS_P2;Temp;Humidity;BMP_temperature;BMP_pressure;BME280_temperature;BME280_humidity;BME280_pressure;Samples;Min_cycle;Max_cycle;Signal;HPM_P1;HPM_P2
2022/03/25 00:01:20;;;;;;;60.35;26.05;;;;;;;;;;6244537;28;20107;-65
2022/03/25 00:04:20;;;;;;;55.05;24.35;;;;;;;;;;6243326;28;20516;-65
2022/03/25 00:07:20;;;;;;;65.32;24.67;;;;;;;;;;6244326;28;20128;-65
2022/03/25 00:10:21;;;;;;;56.92;25.73;;;;;;;;;;6242970;28;20064;-66
2022/03/25 00:13:21;;;;;;;52.67;24.63;;;;;;;;;;6244220;28;20057;-66
2022/03/25 00:16:21;;;;;;;67.25;28.45;;;;;;;;;;6242787;28;20037;-66
2022/03/25 00:19:21;;;;;;;66.28;27.48;;;;;;;;;;6244219;28;20518;-66
2022/03/25 00:22:22;;;;;;;70.70;26.92;;;;;;;;;;6242896;28;20514;-66
2022/03/25 00:25:23;;;;;;;70.80;29.75;;;;;;;;;;6236585;28;20509;-66
2022/03/25 00:28:23;;;;;;;86.40;32.43;;;;;;;;;;6243304;28;20021;-65
2022/03/25 00:31:23;;;;;;;93.60;31.75;;;;;;;;;;6239942;28;20037;-65
2022/03/25 00:34:23;;;;;;;81.40;34.88;;;;;;;;;;6242825;28;20041;-65
2022/03/25 00:37:25;;;;;;;85.85;30.75;;;;;;;;;;6243312;28;20021;-65
2022/03/25 00:40:25;;;;;;;84.95;34.28;;;;;;;;;;6242534;28;20021;-65
2022/03/25 00:43:26;;;;;;;96.43;35.53;;;;;;;;;;6242852;28;20087;-65
2022/03/25 00:46:27;;;;;;;85.85;35.67;;;;;;;;;;6243432;28;20342;-65
2022/03/25 00:49:27;;;;;;;76.87;32.33;;;;;;;;;;6243872;28;20104;-65
2022/03/25 00:52:28;;;;;;;88.95;33.83;;;;;;;;;;6242906;28;20044;-65
2022/03/25 00:55:28;;;;;;;83.38;34.78;;;;;;;;;;6242578;28;20119;-65
2022/03/25 00:58:29;;;;;;;74.30;29.23;;;;;;;;;;6252616;28;20436;-65
2022/03/25 01:01:29;;;;;;;80.00;28.17;;;;;;;;;;6243189;28;20022;-65
2022/03/25 01:04:30;;;;;;;75.95;28.23;;;;;;;;;;6242256;28;20064;-65
2022/03/25 01:07:30;;;;;;;72.03;28.63;;;;;;;;;;6242713;28;20396;-65
2022/03/25 01:10:31;;;;;;;81.85;30.15;;;;;;;;;;6242700;28;20013;-65
2022/03/25 01:13:33;;;;;;;78.47;27.50;;;;;;;;;;6243305;28;20342;-65
2022/03/25 01:16:34;;;;;;;91.72;29.20;;;;;;;;;;6242538;28;20116;-64
2022/03/25 01:19:35;;;;;;;79.43;29.35;;;;;;;;;;6225496;28;20092;-64
2022/03/25 01:22:35;;;;;;;84.53;31.27;;;;;;;;;;6242333;28;20469;-65
2022/03/25 01:25:36;;;;;;;87.95;34.10;;;;;;;;;;6235465;28;20548;-65
2022/03/25 01:28:36;;;;;;;102.80;33.47;;;;;;;;;;6242397;28;20029;-65
2022/03/25 01:31:36;;;;;;;87.10;31.35;;;;;;;;;;6238765;28;20120;-65
2022/03/25 01:34:37;;;;;;;73.28;30.55;;;;;;;;;;6242478;28;20048;-65
2022/03/25 01:37:37;;;;;;;84.57;33.08;;;;;;;;;;6247364;28;20025;-65
2022/03/25 01:40:38;;;;;;;74.50;28.83;;;;;;;;;;6246872;28;20036;-65
2022/03/25 01:43:38;;;;;;;78.50;30.80;;;;;;;;;;6244697;28;20096;-65
2022/03/25 01:46:38;;;;;;;77.38;31.55;;;;;;;;;;6237634;28;20604;-65
2022/03/25 01:49:38;;;;;;;76.45;29.15;;;;;;;;;;6247263;28;20030;-65
2022/03/25 01:52:39;;;;;;;67.13;28.95;;;;;;;;;;6247150;28;20033;-65
2022/03/25 01:55:43;;;;;;;79.57;30.27;;;;;;;;;;6230597;28;20072;-65
2022/03/25 01:58:44;;;;;;;73.25;27.95;;;;;;;;;;6245163;28;20025;-65
2022/03/25 02:01:44;;;;;;;82.03;29.05;;;;;;;;;;6247214;28;20037;-65
2022/03/25 02:04:44;;;;;;;67.25;28.25;;;;;;;;;;6246318;28;20064;-65
2022/03/25 02:07:45;;;;;;;80.80;30.55;;;;;;;;;;6246785;28;20481;-65
2022/03/25 02:10:45;;;;;;;83.18;31.02;;;;;;;;;;6246665;28;20052;-65
2022/03/25 02:13:46;;;;;;;64.53;26.38;;;;;;;;;;6246646;28;20071;-65
2022/03/25 02:16:47;;;;;;;83.63;31.52;;;;;;;;;;6239975;28;20030;-65
2022/03/25 02:19:48;;;;;;;69.03;25.92;;;;;;;;;;6225474;28;20040;-65
2022/03/25 02:22:48;;;;;;;70.13;25.50;;;;;;;;;;6245591;28;20021;-65
2022/03/25 02:25:51;;;;;;;64.47;26.25;;;;;;;;;;6240418;28;20400;-65
2022/03/25 02:28:51;;;;;;;70.38;27.98;;;;;;;;;;6246195;28;20436;-65
2022/03/25 02:31:51;;;;;;;80.50;29.67;;;;;;;;;;6246799;28;20017;-62
2022/03/25 02:34:51;;;;;;;71.95;28.13;;;;;;;;;;6245920;28;20123;-62
2022/03/25 02:37:52;;;;;;;69.97;27.90;;;;;;;;;;6245937;28;20459;-62
2022/03/25 02:40:52;;;;;;;74.85;27.90;;;;;;;;;;6243761;28;20064;-63
2022/03/25 02:43:52;;;;;;;65.95;26.45;;;;;;;;;;6243496;28;20113;-63
2022/03/25 02:46:52;;;;;;;76.38;29.00;;;;;;;;;;6245179;28;20033;-63
2022/03/25 02:49:53;;;;;;;75.88;29.65;;;;;;;;;;6246389;28;20029;-64
2022/03/25 02:52:54;;;;;;;78.05;28.88;;;;;;;;;;6243993;28;20025;-64
2022/03/25 02:55:54;;;;;;;75.28;29.73;;;;;;;;;;6247242;28;20085;-64
2022/03/25 02:58:56;;;;;;;75.53;30.02;;;;;;;;;;6251830;28;20052;-64
2022/03/25 03:01:56;;;;;;;85.50;30.77;;;;;;;;;;6245681;28;20412;-64
2022/03/25 03:04:56;;;;;;;80.18;31.83;;;;;;;;;;6240378;28;20029;-64
2022/03/25 03:07:57;;;;;;;80.82;30.75;;;;;;;;;;6245396;28;20146;-64
2022/03/25 03:10:57;;;;;;;76.80;28.65;;;;;;;;;;6245014;28;20021;-64
2022/03/25 03:13:59;;;;;;;79.75;31.83;;;;;;;;;;6244799;28;20323;-64
2022/03/25 03:16:59;;;;;;;72.50;30.17;;;;;;;;;;6245378;28;20021;-64
2022/03/25 03:20:00;;;;;;;79.32;28.05;;;;;;;;;;6245161;28;20272;-64
2022/03/25 03:23:00;;;;;;;65.80;25.33;;;;;;;;;;6227396;28;20049;-64
2022/03/25 03:26:00;;;;;;;81.47;28.38;;;;;;;;;;6244998;28;20519;-64
2022/03/25 03:29:00;;;;;;;75.57;29.58;;;;;;;;;;6245165;28;20017;-64
2022/03/25 03:32:01;;;;;;;73.82;29.65;;;;;;;;;;6245560;28;20091;-64
2022/03/25 03:35:01;;;;;;;78.32;30.17;;;;;;;;;;6244481;28;20412;-64
2022/03/25 03:38:03;;;;;;;54.58;25.45;;;;;;;;;;6245373;28;20017;-64
2022/03/25 03:41:03;;;;;;;50.88;24.48;;;;;;;;;;6223980;28;20010;-64
2022/03/25 03:44:04;;;;;;;66.38;28.17;;;;;;;;;;6244015;28;20104;-64
2022/03/25 03:47:06;;;;;;;70.70;30.08;;;;;;;;;;6244482;28;20032;-64
2022/03/25 03:50:08;;;;;;;76.35;33.83;;;;;;;;;;6244957;28;20014;-64
2022/03/25 03:53:09;;;;;;;83.47;33.28;;;;;;;;;;6244791;28;20068;-64
2022/03/25 03:56:09;;;;;;;85.18;35.47;;;;;;;;;;6248237;28;20114;-64
2022/03/25 03:59:10;;;;;;;83.72;35.67;;;;;;;;;;6246181;28;20485;-64
2022/03/25 04:02:10;;;;;;;83.30;34.28;;;;;;;;;;6244282;28;20079;-64
2022/03/25 04:05:11;;;;;;;83.93;37.58;;;;;;;;;;6243423;28;20044;-64
2022/03/25 04:08:11;;;;;;;81.07;34.20;;;;;;;;;;6243445;28;20493;-65
2022/03/25 04:11:11;;;;;;;96.18;42.28;;;;;;;;;;6226201;28;20021;-64
2022/03/25 04:14:12;;;;;;;70.03;28.88;;;;;;;;;;6243841;28;20022;-64
2022/03/25 04:17:12;;;;;;;56.50;27.55;;;;;;;;;;6243613;28;20017;-64
2022/03/25 04:20:14;;;;;;;80.78;30.45;;;;;;;;;;6244021;28;20531;-64
2022/03/25 04:23:14;;;;;;;86.75;33.78;;;;;;;;;;6238318;28;20531;-64
2022/03/25 04:26:14;;;;;;;97.80;35.85;;;;;;;;;;6218770;28;20104;-64
2022/03/25 04:29:14;;;;;;;85.78;35.38;;;;;;;;;;6242470;28;20056;-65
2022/03/25 04:32:15;;;;;;;78.47;36.10;;;;;;;;;;6238736;28;20028;-64
2022/03/25 04:35:15;;;;;;;79.40;32.35;;;;;;;;;;6224638;28;20029;-65
2022/03/25 04:38:15;;;;;;;89.05;32.92;;;;;;;;;;6243091;28;20029;-64
2022/03/25 04:41:15;;;;;;;78.05;31.83;;;;;;;;;;6242751;28;20014;-64
2022/03/25 04:44:15;;;;;;;75.95;30.45;;;;;;;;;;6241148;28;20088;-64
2022/03/25 04:47:16;;;;;;;82.80;32.75;;;;;;;;;;6242543;28;20029;-64
2022/03/25 04:50:16;;;;;;;71.60;31.95;;;;;;;;;;6243320;28;20014;-64
2022/03/25 04:53:17;;;;;;;83.65;35.58;;;;;;;;;;6242777;28;20021;-64
2022/03/25 04:56:18;;;;;;;81.25;33.83;;;;;;;;;;6248412;28;20495;-64
2022/03/25 04:59:18;;;;;;;76.63;36.07;;;;;;;;;;6246327;28;20032;-64
2022/03/25 05:02:19;;;;;;;93.80;38.58;;;;;;;;;;6242936;28;20275;-64
2022/03/25 05:05:19;;;;;;;95.57;37.25;;;;;;;;;;6242556;28;20033;-65
2022/03/25 05:08:19;;;;;;;83.50;37.70;;;;;;;;;;6242133;28;20013;-64
2022/03/25 05:11:20;;;;;;;90.15;33.67;;;;;;;;;;6242846;28;20014;-64
2022/03/25 05:14:20;;;;;;;94.53;34.63;;;;;;;;;;6241152;28;20044;-64
2022/03/25 05:17:20;;;;;;;68.63;29.17;;;;;;;;;;6234994;28;20017;-65
2022/03/25 05:20:21;;;;;;;75.43;31.83;;;;;;;;;;6225937;28;20083;-65
2022/03/25 05:23:23;;;;;;;93.95;37.00;;;;;;;;;;6236667;28;20022;-65
2022/03/25 05:26:23;;;;;;;79.88;37.55;;;;;;;;;;6218372;28;20093;-65
2022/03/25 05:29:23;;;;;;;86.17;38.80;;;;;;;;;;6241388;28;20435;-65
2022/03/25 05:32:23;;;;;;;98.05;44.28;;;;;;;;;;6239526;28;21229;-64
2022/03/25 05:35:25;;;;;;;99.77;43.53;;;;;;;;;;6235742;28;20355;-64
2022/03/25 05:38:25;;;;;;;104.95;42.10;;;;;;;;;;6240025;28;20735;-64
2022/03/25 05:41:26;;;;;;;99.40;44.00;;;;;;;;;;6222487;28;20176;-64
2022/03/25 05:44:26;;;;;;;104.95;48.90;;;;;;;;;;6219611;28;20065;-64
2022/03/25 05:47:26;;;;;;;100.50;46.60;;;;;;;;;;6228121;28;20026;-64
2022/03/25 05:50:26;;;;;;;108.50;51.58;;;;;;;;;;6240876;28;20108;-65
2022/03/25 05:53:27;;;;;;;112.50;48.97;;;;;;;;;;6237769;28;20020;-65
2022/03/25 05:56:27;;;;;;;100.22;52.65;;;;;;;;;;6228751;28;20296;-65
2022/03/25 05:59:27;;;;;;;100.65;51.53;;;;;;;;;;6236935;28;20021;-65
2022/03/25 06:02:27;;;;;;;108.93;52.03;;;;;;;;;;6240938;28;20505;-65
2022/03/25 06:05:28;;;;;;;99.72;48.53;;;;;;;;;;6235761;28;20295;-65
2022/03/25 06:08:28;;;;;;;109.45;51.58;;;;;;;;;;6234579;28;20029;-66
2022/03/25 06:11:28;;;;;;;155.75;73.90;;;;;;;;;;6230009;28;20018;-65
2022/03/25 06:14:29;;;;;;;122.40;62.07;;;;;;;;;;6241274;28;20435;-65
2022/03/25 06:17:29;;;;;;;114.13;63.07;;;;;;;;;;6241049;28;20779;-65
2022/03/25 06:20:29;;;;;;;110.85;60.40;;;;;;;;;;6238518;28;20286;-65
2022/03/25 06:23:29;;;;;;;117.40;61.60;;;;;;;;;;6238781;28;20536;-65
2022/03/25 06:26:30;;;;;;;113.03;56.20;;;;;;;;;;6241575;28;20025;-65
2022/03/25 06:29:30;;;;;;;98.97;52.13;;;;;;;;;;6244742;28;20026;-65
2022/03/25 06:32:30;;;;;;;100.25;53.20;;;;;;;;;;6244573;28;20268;-66
2022/03/25 06:35:30;;;;;;;105.50;51.50;;;;;;;;;;6245234;28;20030;-66
2022/03/25 06:38:31;;;;;;;101.70;51.70;;;;;;;;;;6225708;28;20625;-66
2022/03/25 06:41:31;;;;;;;97.00;48.63;;;;;;;;;;6232828;28;20287;-66
2022/03/25 06:44:31;;;;;;;98.85;51.15;;;;;;;;;;6229764;28;20303;-66
2022/03/25 06:47:31;;;;;;;91.50;47.57;;;;;;;;;;6228489;28;20036;-66
2022/03/25 06:50:32;;;;;;;99.05;48.10;;;;;;;;;;6231609;28;20268;-66
2022/03/25 06:53:33;;;;;;;97.38;47.88;;;;;;;;;;6230825;28;20045;-67
2022/03/25 06:56:34;;;;;;;96.20;48.72;;;;;;;;;;6238392;28;20050;-67
2022/03/25 06:59:35;;;;;;;86.85;43.58;;;;;;;;;;6242264;28;20032;-67
2022/03/25 07:02:36;;;;;;;89.95;48.38;;;;;;;;;;6244241;28;20029;-67
2022/03/25 07:05:36;;;;;;;86.53;44.72;;;;;;;;;;6232792;28;20021;-67
2022/03/25 07:08:38;;;;;;;77.53;41.65;;;;;;;;;;6234036;28;20029;-67
2022/03/25 07:11:39;;;;;;;;;;;;;;;;;;6229096;28;20014;-67
2022/03/25 07:14:39;;;;;;;82.07;44.17;;;;;;;;;;6243376;28;19916;-67
2022/03/25 07:17:41;;;;;;;87.80;47.30;;;;;;;;;;6240383;28;20060;-67
2022/03/25 07:20:41;;;;;;;79.10;44.38;;;;;;;;;;6239637;28;20271;-67
2022/03/25 07:23:42;;;;;;;94.43;52.38;;;;;;;;;;6238709;28;20025;-67
2022/03/25 07:26:42;;;;;;;79.68;45.53;;;;;;;;;;6231696;28;20036;-67
2022/03/25 07:29:42;;;;;;;82.78;43.53;;;;;;;;;;6240682;28;20515;-67
2022/03/25 07:32:43;;;;;;;86.67;45.93;;;;;;;;;;6243490;28;20100;-67
2022/03/25 07:35:43;;;;;;;82.70;43.10;;;;;;;;;;6244664;28;20628;-67
2022/03/25 07:38:43;;;;;;;83.72;46.33;;;;;;;;;;6245104;28;20018;-67
2022/03/25 07:41:44;;;;;;;86.07;47.53;;;;;;;;;;6241691;28;20057;-67
2022/03/25 07:44:44;;;;;;;73.70;41.13;;;;;;;;;;6236729;28;20273;-67
2022/03/25 07:47:45;;;;;;;84.35;43.17;;;;;;;;;;6239070;28;20268;-67
2022/03/25 07:50:46;;;;;;;76.68;42.25;;;;;;;;;;6237843;28;20091;-67
2022/03/25 07:53:46;;;;;;;77.40;43.95;;;;;;;;;;6235548;28;20022;-67
2022/03/25 07:56:46;;;;;;;77.35;39.05;;;;;;;;;;6237783;28;20037;-67
2022/03/25 07:59:47;;;;;;;66.78;36.60;;;;;;;;;;6229937;28;20093;-67
2022/03/25 08:02:49;;;;;;;73.03;38.92;;;;;;;;;;6233640;28;20024;-67
2022/03/25 08:05:51;;;;;;;63.30;35.55;;;;;;;;;;6236610;28;20440;-67
2022/03/25 08:08:51;;;;;;;56.80;32.57;;;;;;;;;;6238347;28;21214;-66
2022/03/25 08:11:51;;;;;;;49.60;26.43;;;;;;;;;;6241237;28;20529;-67
2022/03/25 08:14:52;;;;;;;57.23;26.47;;;;;;;;;;6241956;28;20160;-66
2022/03/25 08:17:55;;;;;;;49.90;26.33;;;;;;;;;;6235594;28;20382;-67
2022/03/25 08:20:57;;;;;;;45.30;23.20;;;;;;;;;;6241229;28;20366;-66
2022/03/25 08:30:35;;;;;;;35.40;17.40;;;;;;;;;;6237568;28;20497;-66
2022/03/25 08:33:35;;;;;;;27.08;16.20;;;;;;;;;;6235730;28;20034;-66
2022/03/25 08:36:35;;;;;;;31.63;15.97;;;;;;;;;;6231809;28;20037;-66
2022/03/25 08:39:36;;;;;;;25.60;13.37;;;;;;;;;;6242021;28;20299;-66
2022/03/25 08:42:36;;;;;;;32.37;15.33;;;;;;;;;;6240059;28;20096;-66
2022/03/25 08:45:36;;;;;;;32.40;14.73;;;;;;;;;;6238356;28;20415;-66
2022/03/25 08:48:36;;;;;;;27.73;13.40;;;;;;;;;;6229445;28;20399;-67
2022/03/25 08:51:37;;;;;;;27.93;16.17;;;;;;;;;;6228504;28;20016;-66
2022/03/25 08:54:37;;;;;;;25.43;13.17;;;;;;;;;;6223342;28;20045;-66
2022/03/25 08:57:38;;;;;;;28.63;14.67;;;;;;;;;;6236060;28;20060;-66
2022/03/25 09:00:38;;;;;;;26.00;16.07;;;;;;;;;;6236997;28;20064;-66
2022/03/25 09:03:39;;;;;;;22.87;12.77;;;;;;;;;;6240746;28;20155;-66
2022/03/25 09:06:39;;;;;;;28.07;14.23;;;;;;;;;;6236292;28;20056;-67
2022/03/25 09:09:39;;;;;;;23.00;12.20;;;;;;;;;;6234188;28;20095;-67
2022/03/25 09:12:39;;;;;;;20.37;10.90;;;;;;;;;;6241220;28;20014;-67
2022/03/25 09:15:39;;;;;;;22.47;11.30;;;;;;;;;;6240646;28;20009;-66
2022/03/25 09:18:40;;;;;;;25.03;11.30;;;;;;;;;;6240842;28;20025;-66
2022/03/25 09:21:40;;;;;;;20.73;13.03;;;;;;;;;;6250070;28;20021;-67
2022/03/25 09:24:40;;;;;;;24.43;12.87;;;;;;;;;;6240618;28;20130;-67
2022/03/25 09:27:40;;;;;;;26.43;13.10;;;;;;;;;;6264307;28;20029;-66
2022/03/25 09:30:41;;;;;;;25.30;12.27;;;;;;;;;;6249720;28;20022;-66
2022/03/25 09:33:41;;;;;;;20.83;11.37;;;;;;;;;;6237865;28;20013;-66
2022/03/25 09:36:41;;;;;;;27.27;13.87;;;;;;;;;;6252040;28;20029;-66
2022/03/25 09:39:41;;;;;;;20.63;10.83;;;;;;;;;;6247041;28;20025;-66
2022/03/25 09:42:42;;;;;;;20.23;11.47;;;;;;;;;;6240556;28;20373;-67
2022/03/25 09:45:42;;;;;;;23.57;11.33;;;;;;;;;;6221382;28;20095;-67
2022/03/25 09:48:43;;;;;;;17.17;10.90;;;;;;;;;;6226956;28;20017;-66
2022/03/25 09:51:43;;;;;;;22.27;11.50;;;;;;;;;;6225193;28;20017;-67
2022/03/25 09:54:44;;;;;;;25.83;12.40;;;;;;;;;;6222252;28;20566;-67
2022/03/25 09:57:46;;;;;;;21.50;10.43;;;;;;;;;;6226527;28;20060;-67
2022/03/25 10:00:49;;;;;;;18.37;10.70;;;;;;;;;;6226192;28;20030;-67
2022/03/25 10:03:51;;;;;;;22.27;11.80;;;;;;;;;;6239510;28;20025;-67
2022/03/25 10:06:51;;;;;;;20.63;9.98;;;;;;;;;;6252269;28;20028;-67
2022/03/25 10:10:08;;;;;;;19.30;11.37;;;;;;;;;;6243862;28;20440;-67
2022/03/25 10:13:09;;;;;;;15.43;8.40;;;;;;;;;;6241066;28;20033;-67
2022/03/25 10:16:48;;;;;;;14.80;8.00;;;;;;;;;;6243481;28;20053;-67
2022/03/25 10:19:49;;;;;;;17.70;7.53;;;;;;;;;;6122040;28;20148;-67
2022/03/25 10:23:00;;;;;;;17.87;9.27;;;;;;;;;;6241437;28;20388;-67
2022/03/25 10:26:01;;;;;;;17.25;9.73;;;;;;;;;;6243704;28;20032;-67
2022/03/25 10:29:01;;;;;;;23.17;11.67;;;;;;;;;;6243560;28;20413;-67
2022/03/25 10:32:05;;;;;;;16.40;10.13;;;;;;;;;;6234411;28;20493;-67
2022/03/25 10:35:07;;;;;;;20.50;9.50;;;;;;;;;;6236893;28;20469;-67
2022/03/25 10:38:07;;;;;;;15.90;8.98;;;;;;;;;;6230737;28;20033;-67
2022/03/25 10:41:08;;;;;;;17.07;8.47;;;;;;;;;;6235217;28;20024;-67
2022/03/25 10:44:09;;;;;;;15.43;9.10;;;;;;;;;;6242232;28;20013;-67
2022/03/25 10:47:15;;;;;;;12.98;5.53;;;;;;;;;;6235304;28;20452;-67
2022/03/25 10:50:16;;;;;;;17.00;8.98;;;;;;;;;;6236137;28;20454;-67
2022/03/25 10:53:16;;;;;;;15.30;8.80;;;;;;;;;;6241029;28;20025;-67
2022/03/25 10:56:16;;;;;;;14.20;8.90;;;;;;;;;;6232454;28;20049;-67
2022/03/25 10:59:19;;;;;;;15.43;9.77;;;;;;;;;;6249080;28;20041;-67
2022/03/25 11:02:20;;;;;;;18.73;10.88;;;;;;;;;;6246315;28;20018;-67
2022/03/25 11:05:20;;;;;;;16.57;9.90;;;;;;;;;;6245737;28;20167;-67
2022/03/25 11:08:21;;;;;;;15.57;9.30;;;;;;;;;;6243438;28;20071;-68
2022/03/25 11:11:21;;;;;;;15.17;9.13;;;;;;;;;;6227452;28;20025;-67
2022/03/25 11:14:22;;;;;;;13.30;6.47;;;;;;;;;;6229916;28;20022;-67
2022/03/25 11:17:22;;;;;;;19.03;7.50;;;;;;;;;;6229923;28;20017;-67
2022/03/25 11:20:24;;;;;;;15.50;7.27;;;;;;;;;;6244781;28;20025;-67
2022/03/25 11:23:26;;;;;;;14.30;7.50;;;;;;;;;;6240740;28;20039;-67
2022/03/25 11:26:28;;;;;;;17.00;8.27;;;;;;;;;;6236398;28;20437;-67
2022/03/25 11:29:31;;;;;;;14.27;7.43;;;;;;;;;;6239693;28;20013;-67
2022/03/25 11:32:31;;;;;;;13.80;8.63;;;;;;;;;;6237713;28;20087;-67
2022/03/25 11:35:32;;;;;;;16.03;7.67;;;;;;;;;;6243366;28;20017;-67
2022/03/25 11:38:32;;;;;;;17.30;7.72;;;;;;;;;;6242647;28;20168;-67
2022/03/25 11:41:32;;;;;;;12.73;7.43;;;;;;;;;;6243873;28;20017;-67
2022/03/25 11:44:33;;;;;;;13.10;6.10;;;;;;;;;;6239868;28;20033;-67
2022/03/25 11:47:33;;;;;;;15.67;8.03;;;;;;;;;;6240049;28;20325;-67
2022/03/25 11:50:38;;;;;;;14.00;7.40;;;;;;;;;;6239948;28;20013;-67
2022/03/25 11:53:38;;;;;;;15.73;8.63;;;;;;;;;;6236343;28;20028;-67
2022/03/25 11:56:48;;;;;;;17.53;9.00;;;;;;;;;;6239075;28;20077;-67
2022/03/25 11:59:49;;;;;;;13.52;8.23;;;;;;;;;;6238056;28;20025;-67
2022/03/25 12:03:00;;;;;;;13.13;6.72;;;;;;;;;;6239462;28;20032;-67
2022/03/25 12:06:01;;;;;;;16.27;7.45;;;;;;;;;;6241081;28;20041;-67
2022/03/25 12:09:06;;;;;;;10.67;6.70;;;;;;;;;;6243776;28;20386;-67
2022/03/25 12:12:07;;;;;;;14.93;7.50;;;;;;;;;;6220106;28;20025;-67
2022/03/25 12:15:10;;;;;;;14.87;7.70;;;;;;;;;;6236562;28;20056;-67
2022/03/25 12:18:29;;;;;;;17.77;8.90;;;;;;;;;;6243184;28;20036;-67
2022/03/25 12:21:38;;;;;;;13.60;7.20;;;;;;;;;;6244229;28;20025;-68
2022/03/25 12:24:38;;;;;;;15.90;7.60;;;;;;;;;;6227715;28;20022;-67
2022/03/25 12:27:38;;;;;;;12.40;6.33;;;;;;;;;;6243113;28;20053;-67
2022/03/25 12:30:39;;;;;;;15.37;6.77;;;;;;;;;;6243906;28;20030;-67
2022/03/25 12:33:39;;;;;;;12.37;6.90;;;;;;;;;;6242960;28;20033;-67
2022/03/25 12:36:48;;;;;;;18.60;8.30;;;;;;;;;;6243622;28;20032;-67
2022/03/25 12:39:49;;;;;;;14.20;7.35;;;;;;;;;;6243817;28;20033;-67
2022/03/25 12:42:50;;;;;;;15.40;8.57;;;;;;;;;;6232740;28;20096;-67
2022/03/25 12:45:51;;;;;;;;;;;;;;;;;;6219424;28;20474;-67
2022/03/25 12:48:51;;;;;;;18.90;9.05;;;;;;;;;;6225162;28;19905;-67
2022/03/25 12:51:55;;;;;;;14.23;7.83;;;;;;;;;;6230031;28;20017;-67
2022/03/25 12:55:04;;;;;;;13.98;7.07;;;;;;;;;;6218168;28;20525;-67
2022/03/25 12:58:05;;;;;;;14.15;7.63;;;;;;;;;;6229264;28;20025;-67
2022/03/25 13:01:06;;;;;;;14.32;7.07;;;;;;;;;;6230379;28;20029;-67
2022/03/25 13:04:09;;;;;;;17.07;8.00;;;;;;;;;;6232238;28;20113;-67
2022/03/25 13:07:10;;;;;;;13.68;7.55;;;;;;;;;;6230127;28;20068;-67
2022/03/25 13:10:11;;;;;;;13.60;7.30;;;;;;;;;;6233624;28;20489;-67
2022/03/25 13:13:14;;;;;;;16.13;7.93;;;;;;;;;;6239045;28;20422;-67
2022/03/25 13:16:14;;;;;;;15.23;8.02;;;;;;;;;;6237994;28;20381;-67
2022/03/25 13:19:14;;;;;;;14.60;7.53;;;;;;;;;;6238983;28;20013;-67
2022/03/25 13:22:15;;;;;;;13.23;7.37;;;;;;;;;;6237774;28;20013;-67
2022/03/25 13:25:15;;;;;;;15.32;7.50;;;;;;;;;;6221652;28;20029;-67
2022/03/25 13:28:16;;;;;;;14.33;8.17;;;;;;;;;;6228889;28;20088;-67
2022/03/25 13:31:16;;;;;;;11.57;7.03;;;;;;;;;;6237189;28;20155;-67
2022/03/25 13:34:16;;;;;;;18.23;8.97;;;;;;;;;;6244064;28;20013;-67
2022/03/25 13:37:22;;;;;;;17.20;10.20;;;;;;;;;;6241740;28;20044;-67
2022/03/25 13:40:43;;;;;;;15.30;8.77;;;;;;;;;;6235896;28;20026;-67
2022/03/25 13:43:45;;;;;;;14.63;8.90;;;;;;;;;;6242741;28;20492;-67
2022/03/25 13:46:45;;;;;;;16.08;9.02;;;;;;;;;;6246093;28;20025;-67
2022/03/25 13:49:45;;;;;;;20.90;9.37;;;;;;;;;;6245821;28;20021;-68
2022/03/25 13:52:53;;;;;;;16.90;9.37;;;;;;;;;;6244944;28;20022;-67
2022/03/25 13:55:53;;;;;;;16.35;8.73;;;;;;;;;;6237470;28;20049;-67
2022/03/25 13:58:55;;;;;;;15.83;9.80;;;;;;;;;;6237581;28;20433;-67
2022/03/25 14:01:55;;;;;;;16.63;10.70;;;;;;;;;;6235795;28;20030;-68
2022/03/25 14:04:56;;;;;;;15.50;9.88;;;;;;;;;;6233515;28;20997;-67
2022/03/25 14:07:58;;;;;;;21.33;13.20;;;;;;;;;;6238470;28;20104;-68
2022/03/25 14:10:59;;;;;;;24.15;13.98;;;;;;;;;;6238595;28;20026;-68
2022/03/25 14:14:00;;;;;;;26.45;12.25;;;;;;;;;;6228332;28;20014;-68
2022/03/25 14:17:06;;;;;;;23.30;10.77;;;;;;;;;;6245522;28;20519;-68
2022/03/25 14:20:08;;;;;;;16.00;8.75;;;;;;;;;;6222607;28;20029;-67
2022/03/25 14:23:09;;;;;;;14.93;9.15;;;;;;;;;;6222215;28;20022;-68
2022/03/25 14:26:09;;;;;;;16.47;8.83;;;;;;;;;;6221928;28;20049;-68
2022/03/25 14:29:09;;;;;;;18.40;9.87;;;;;;;;;;6245287;28;20017;-68
2022/03/25 14:32:10;;;;;;;21.63;14.77;;;;;;;;;;6230276;28;20045;-68
2022/03/25 14:35:10;;;;;;;15.07;9.23;;;;;;;;;;6222263;28;20331;-67
2022/03/25 14:38:11;;;;;;;15.47;9.20;;;;;;;;;;6221782;28;20448;-67
2022/03/25 14:41:11;;;;;;;17.83;9.23;;;;;;;;;;6226362;28;20013;-67
2022/03/25 14:44:11;;;;;;;14.60;10.20;;;;;;;;;;6223642;28;20025;-67
2022/03/25 14:47:12;;;;;;;17.37;10.03;;;;;;;;;;6221994;28;20496;-67
2022/03/25 14:50:12;;;;;;;28.02;16.70;;;;;;;;;;6234557;28;20393;-68
2022/03/25 14:53:14;;;;;;;16.00;11.33;;;;;;;;;;6245170;28;20018;-68
2022/03/25 14:56:14;;;;;;;;;;;;;;;;;;6246573;28;20049;-68
2022/03/25 14:59:14;;;;;;;16.85;10.90;;;;;;;;;;6246015;28;19912;-67
2022/03/25 15:02:15;;;;;;;19.17;9.10;;;;;;;;;;6246185;28;20029;-68
2022/03/25 15:05:15;;;;;;;15.82;9.63;;;;;;;;;;6245527;28;20112;-67
2022/03/25 15:08:16;;;;;;;20.70;9.73;;;;;;;;;;6245338;28;20023;-67
2022/03/25 15:11:19;;;;;;;14.93;10.40;;;;;;;;;;6245485;28;20017;-67
2022/03/25 15:14:19;;;;;;;14.38;8.77;;;;;;;;;;6221927;28;20095;-67
2022/03/25 15:17:19;;;;;;;16.67;10.53;;;;;;;;;;6240419;28;20025;-67
2022/03/25 15:20:20;;;;;;;19.50;11.40;;;;;;;;;;6234824;28;20034;-67
2022/03/25 15:23:20;;;;;;;21.13;11.23;;;;;;;;;;6221834;28;20486;-67
2022/03/25 15:26:21;;;;;;;18.27;10.80;;;;;;;;;;6230412;28;20488;-68
2022/03/25 15:36:18;;;;;;;14.18;9.00;;;;;;;;;;6108768;28;20063;-67
2022/03/25 15:39:19;;;;;;;13.53;8.93;;;;;;;;;;6229566;28;20028;-67
2022/03/25 15:42:19;;;;;;;14.00;7.73;;;;;;;;;;6213325;28;20030;-68
2022/03/25 15:45:19;;;;;;;12.20;7.67;;;;;;;;;;6243447;28;20473;-68
2022/03/25 15:48:19;;;;;;;15.33;7.43;;;;;;;;;;6219579;28;20140;-68
2022/03/25 15:51:20;;;;;;;18.63;8.73;;;;;;;;;;6219865;28;20461;-68
2022/03/25 15:54:20;;;;;;;18.37;10.50;;;;;;;;;;6214152;28;20021;-68
2022/03/25 15:57:21;;;;;;;13.33;7.87;;;;;;;;;;6225984;28;20030;-68
2022/03/25 16:00:23;;;;;;;17.20;9.07;;;;;;;;;;6222305;28;20154;-68
2022/03/25 16:03:24;;;;;;;12.65;6.80;;;;;;;;;;6224663;28;20120;-68
2022/03/25 16:06:24;;;;;;;14.90;6.03;;;;;;;;;;6199021;28;20505;-68
2022/03/25 16:09:24;;;;;;;13.47;6.73;;;;;;;;;;6219987;28;20552;-68
2022/03/25 16:12:24;;;;;;;13.73;7.63;;;;;;;;;;6204989;28;20017;-68
2022/03/25 16:15:25;;;;;;;15.47;7.43;;;;;;;;;;6230907;28;20142;-68
2022/03/25 16:18:25;;;;;;;15.63;6.97;;;;;;;;;;6226374;28;20037;-68
2022/03/25 16:21:25;;;;;;;16.73;7.73;;;;;;;;;;6227335;28;20105;-68
2022/03/25 16:24:26;;;;;;;15.50;8.43;;;;;;;;;;6218063;28;20028;-68
2022/03/25 16:27:28;;;;;;;18.80;8.97;;;;;;;;;;6227378;28;20028;-68
2022/03/25 16:30:33;;;;;;;;;;;;;;;;;;6245021;28;20028;-68
2022/03/25 16:33:34;;;;;;;14.85;8.68;;;;;;;;;;6244365;28;19975;-68
2022/03/25 16:36:34;;;;;;;16.87;9.80;;;;;;;;;;6244780;28;20045;-68
2022/03/25 16:39:34;;;;;;;18.03;10.57;;;;;;;;;;6243983;28;20018;-68
2022/03/25 16:42:34;;;;;;;14.63;8.23;;;;;;;;;;6234539;28;20478;-68
2022/03/25 16:45:35;;;;;;;20.97;9.77;;;;;;;;;;6219645;28;20024;-68
2022/03/25 16:48:37;;;;;;;14.07;8.77;;;;;;;;;;6219361;28;20508;-68
2022/03/25 16:51:37;;;;;;;20.05;10.32;;;;;;;;;;6219499;28;20021;-68
2022/03/25 16:54:38;;;;;;;17.03;9.27;;;;;;;;;;6218663;28;20054;-68
2022/03/25 16:57:38;;;;;;;23.30;11.30;;;;;;;;;;6244200;28;20048;-67
2022/03/25 17:00:39;;;;;;;15.25;6.95;;;;;;;;;;6238634;28;20131;-67
2022/03/25 17:03:47;;;;;;;14.63;7.20;;;;;;;;;;6230622;28;20030;-68
2022/03/25 17:06:48;;;;;;;14.00;7.60;;;;;;;;;;6218647;28;20644;-67
2022/03/25 17:09:48;;;;;;;17.10;7.87;;;;;;;;;;6236405;28;20317;-67
2022/03/25 17:12:49;;;;;;;16.92;7.55;;;;;;;;;;6238544;28;20018;-67
2022/03/25 17:15:49;;;;;;;17.13;7.83;;;;;;;;;;6223936;28;20055;-67
2022/03/25 17:18:49;;;;;;;16.55;7.65;;;;;;;;;;6227726;28;20263;-67
2022/03/25 17:21:50;;;;;;;14.95;7.53;;;;;;;;;;6227427;28;20025;-67
2022/03/25 17:24:50;;;;;;;17.38;8.13;;;;;;;;;;6226666;28;20053;-67
2022/03/25 17:27:50;;;;;;;17.43;7.87;;;;;;;;;;6240747;28;20037;-67
2022/03/25 17:30:53;;;;;;;21.27;8.20;;;;;;;;;;6239317;28;20264;-67
2022/03/25 17:33:53;;;;;;;17.55;9.07;;;;;;;;;;6235441;28;20256;-67
2022/03/25 17:36:54;;;;;;;29.92;10.75;;;;;;;;;;6237975;28;20531;-67
2022/03/25 17:39:57;;;;;;;23.00;11.17;;;;;;;;;;6236047;28;20018;-67
2022/03/25 17:42:57;;;;;;;83.07;45.95;;;;;;;;;;6239402;28;20774;-67
2022/03/25 17:45:58;;;;;;;65.50;38.70;;;;;;;;;;6223149;28;20025;-67
2022/03/25 17:48:59;;;;;;;38.90;18.35;;;;;;;;;;6235677;28;20032;-67
2022/03/25 17:51:59;;;;;;;30.10;13.70;;;;;;;;;;6234157;28;20276;-67